Time;durP1;ratioP1;P1;durP2;ratioP2;P2;SDS_P1;SDS_P2;PMS_P1;PMS_P2;Temp;Humidity;BMP_temperature;BMP_pressure;BME280_temperature;BME280_humidity;BME280_pressure;Samples;Min_cycle;Max_cycle;Signal;HPM_P1;HPM_P2
2024/01/10 00:01:07;;;;;;;43.58;19.75;;;;;;;-6.00;66.17;100302.66;5018658;28;20083;-77
2024/01/10 00:03:32;;;;;;;42.22;20.02;;;;;;;-6.06;66.26;100295.31;5022750;28;20099;-78
2024/01/10 00:05:58;;;;;;;45.17;20.92;;;;;;;-6.04;66.11;100298.63;5020531;28;20471;-77
2024/01/10 00:08:23;;;;;;;50.97;21.10;;;;;;;-5.95;65.67;100297.97;5021066;28;20057;-77
2024/01/10 00:10:48;;;;;;;48.92;21.05;;;;;;;-5.98;66.08;100293.03;5014511;28;20112;-77
2024/01/10 00:13:14;;;;;;;48.40;20.70;;;;;;;-5.91;65.91;100296.81;5020608;28;20091;-77
2024/01/10 00:15:39;;;;;;;48.17;19.77;;;;;;;-5.92;65.48;100295.19;5018025;28;20042;-77
2024/01/10 00:18:05;;;;;;;49.92;21.63;;;;;;;-5.95;65.32;100285.81;5019733;28;20402;-77
2024/01/10 00:20:30;;;;;;;48.70;21.27;;;;;;;-5.92;65.31;100287.38;5021878;28;20112;-77
2024/01/10 00:22:55;;;;;;;47.15;21.23;;;;;;;-5.90;65.59;100290.69;5021748;28;20021;-75
2024/01/10 00:25:20;;;;;;;53.50;21.10;;;;;;;-5.92;65.64;100287.38;5018498;28;20084;-75
2024/01/10 00:27:46;;;;;;;46.50;21.85;;;;;;;-5.89;65.96;100290.59;5019533;28;20116;-75
2024/01/10 00:30:11;;;;;;;43.53;20.20;;;;;;;-5.93;65.89;100294.34;5017760;28;20061;-76
2024/01/10 00:32:37;;;;;;;44.88;20.90;;;;;;;-5.93;66.12;100285.72;5037206;28;20124;-76
2024/01/10 00:35:03;;;;;;;50.65;24.00;;;;;;;-5.92;65.56;100274.38;5020199;28;20061;-76
2024/01/10 00:37:28;;;;;;;53.92;21.25;;;;;;;-5.83;65.90;100290.09;5019094;28;20061;-76
2024/01/10 00:39:54;;;;;;;48.08;22.23;;;;;;;-5.89;66.12;100284.53;5020388;28;20064;-76
2024/01/10 00:42:19;;;;;;;58.30;22.35;;;;;;;-5.89;65.58;100280.19;5021829;28;20030;-76
2024/01/10 00:44:44;;;;;;;46.05;23.80;;;;;;;-5.93;66.13;100281.34;5018757;28;20046;-76
2024/01/10 00:47:11;;;;;;;51.17;22.33;;;;;;;-5.90;65.87;100270.75;5021470;28;20034;-75
2024/01/10 00:49:36;;;;;;;57.17;23.85;;;;;;;-6.01;65.98;100277.63;5019698;28;20064;-75
2024/01/10 00:52:01;;;;;;;48.08;22.83;;;;;;;-5.93;65.74;100275.31;5018951;28;20033;-75
2024/01/10 00:54:27;;;;;;;51.47;23.20;;;;;;;-5.97;66.31;100274.72;5018545;28;20021;-76
2024/01/10 00:56:52;;;;;;;54.90;23.92;;;;;;;-5.95;65.94;100272.84;5022045;28;20072;-75
2024/01/10 00:59:18;;;;;;;54.28;23.90;;;;;;;-6.02;65.97;100270.75;5027107;28;20510;-75
2024/01/10 01:01:43;;;;;;;57.75;24.08;;;;;;;-6.00;66.46;100274.91;5021079;28;20258;-77
2024/01/10 01:04:08;;;;;;;56.47;24.52;;;;;;;-6.01;65.86;100270.69;5018580;28;20116;-77
2024/01/10 01:06:33;;;;;;;57.75;25.30;;;;;;;-6.11;65.85;100260.09;5020451;28;20069;-77
2024/01/10 01:08:59;;;;;;;58.50;23.67;;;;;;;-6.11;65.69;100267.88;5021118;28;20079;-76
2024/01/10 01:11:25;;;;;;;54.55;23.13;;;;;;;-6.12;65.86;100258.44;5015886;28;20038;-77
2024/01/10 01:13:50;;;;;;;48.53;23.77;;;;;;;-6.12;66.12;100268.00;5017685;28;20120;-77
2024/01/10 01:16:15;;;;;;;60.38;23.42;;;;;;;-6.05;65.97;100258.84;5021356;28;20478;-76
2024/01/10 01:18:45;;;;;;;51.22;22.48;;;;;;;-6.08;66.08;100258.22;5025431;28;20033;-76
2024/01/10 01:21:10;;;;;;;50.95;24.88;;;;;;;-6.09;65.64;100264.38;5019209;28;20101;-76
2024/01/10 01:23:36;;;;;;;49.45;23.10;;;;;;;-6.04;66.38;100265.69;5021887;28;20123;-77
2024/01/10 01:26:01;;;;;;;52.40;22.20;;;;;;;-6.06;65.85;100266.72;5019991;28;20029;-77
2024/01/10 01:28:27;;;;;;;58.72;26.50;;;;;;;-6.11;65.80;100259.25;5027573;28;20163;-76
2024/01/10 01:30:52;;;;;;;56.08;23.63;;;;;;;-6.19;66.11;100243.38;5022253;28;20071;-77
2024/01/10 01:33:18;;;;;;;55.95;24.42;;;;;;;-6.18;65.84;100253.66;5022096;28;20042;-77
2024/01/10 01:35:43;;;;;;;63.78;26.90;;;;;;;-6.21;66.93;100250.47;5028072;28;20034;-76
2024/01/10 01:38:09;;;;;;;56.85;25.25;;;;;;;-6.23;66.20;100247.97;5027256;28;20033;-77
2024/01/10 01:40:34;;;;;;;57.75;24.48;;;;;;;-6.22;66.34;100246.19;5025672;28;20161;-76
2024/01/10 01:42:59;;;;;;;60.67;25.23;;;;;;;-6.25;66.30;100247.25;5028239;28;20057;-77
2024/01/10 01:45:24;;;;;;;56.90;24.92;;;;;;;-6.30;66.12;100240.72;5025376;28;20072;-78
2024/01/10 01:47:50;;;;;;;63.88;26.40;;;;;;;-6.33;66.38;100246.94;5027630;28;20067;-77
2024/01/10 01:50:16;;;;;;;66.32;27.70;;;;;;;-6.37;66.38;100235.13;5026979;28;20052;-77
2024/01/10 01:52:43;;;;;;;56.17;24.98;;;;;;;-6.43;66.61;100235.56;5022929;28;20037;-77
2024/01/10 01:55:09;;;;;;;61.40;24.80;;;;;;;-6.41;66.36;100244.06;5027213;28;20046;-76
2024/01/10 01:57:37;;;;;;;59.22;25.85;;;;;;;-6.43;66.87;100239.91;5026939;28;20025;-76
2024/01/10 02:00:02;;;;;;;64.10;25.02;;;;;;;-6.43;66.10;100239.91;5027859;28;20035;-76
2024/01/10 02:02:30;;;;;;;61.78;26.13;;;;;;;-6.48;66.88;100231.59;5025265;28;20029;-76
2024/01/10 02:04:57;;;;;;;63.55;24.52;;;;;;;-6.49;66.57;100236.00;5029045;28;20050;-75
2024/01/10 02:07:22;;;;;;;58.97;25.50;;;;;;;-6.58;66.39;100240.97;5024329;28;20029;-75
2024/01/10 02:09:48;;;;;;;53.65;24.70;;;;;;;-6.59;67.27;100234.94;5029177;28;20036;-75
2024/01/10 02:12:13;;;;;;;55.70;25.10;;;;;;;-6.63;66.93;100238.69;5024580;28;20037;-77
2024/01/10 02:14:39;;;;;;;58.95;24.95;;;;;;;-6.58;66.71;100235.78;5028641;28;20051;-78
2024/01/10 02:17:05;;;;;;;57.67;23.95;;;;;;;-6.59;66.29;100227.16;5029461;28;20040;-77
2024/01/10 02:19:32;;;;;;;63.53;25.48;;;;;;;-6.62;66.45;100227.41;5030486;28;20022;-78
2024/01/10 02:21:57;;;;;;;59.65;24.52;;;;;;;-6.63;66.92;100228.31;5032570;28;20089;-78
2024/01/10 02:24:23;;;;;;;55.90;23.42;;;;;;;-6.64;66.61;100223.25;5031364;28;20072;-75
2024/01/10 02:26:49;;;;;;;69.65;26.80;;;;;;;-6.57;66.51;100222.69;5026097;28;20133;-75
2024/01/10 02:29:15;;;;;;;51.85;24.75;;;;;;;-6.63;66.78;100220.53;5029412;28;20025;-75
2024/01/10 02:31:40;;;;;;;53.42;24.63;;;;;;;-6.66;66.76;100225.13;5024343;28;20041;-74
2024/01/10 02:34:06;;;;;;;56.60;25.85;;;;;;;-6.65;66.44;100212.03;5022355;28;20060;-77
2024/01/10 02:36:31;;;;;;;55.83;26.85;;;;;;;-6.72;66.47;100215.97;5024716;28;20480;-76
2024/01/10 02:38:56;;;;;;;62.22;24.05;;;;;;;-6.72;66.91;100208.19;5029198;28;20858;-76
2024/01/10 02:41:22;;;;;;;60.03;27.00;;;;;;;-6.76;66.58;100219.72;5025098;28;20562;-76
2024/01/10 02:43:47;;;;;;;56.17;24.65;;;;;;;-6.83;67.02;100213.28;5028556;28;20045;-76
2024/01/10 02:46:12;;;;;;;54.47;24.40;;;;;;;-6.72;66.20;100218.56;5026192;28;20052;-77
2024/01/10 02:48:37;;;;;;;55.95;24.10;;;;;;;-6.75;66.43;100221.41;5027759;28;20112;-77
2024/01/10 02:51:03;;;;;;;63.38;26.42;;;;;;;-6.75;66.36;100224.00;5028416;28;20170;-76
2024/01/10 02:53:30;;;;;;;56.58;23.25;;;;;;;-6.72;66.41;100218.56;5018375;28;20041;-76
2024/01/10 02:55:55;;;;;;;51.50;23.23;;;;;;;-6.74;66.27;100222.19;5027825;28;20037;-76
2024/01/10 02:58:21;;;;;;;50.55;24.20;;;;;;;-6.74;66.38;100227.38;5026614;28;20075;-77
2024/01/10 03:00:46;;;;;;;53.92;24.52;;;;;;;-6.74;66.67;100217.84;5024194;28;20083;-76
2024/01/10 03:03:12;;;;;;;57.72;23.85;;;;;;;-6.74;66.87;100215.25;5025105;28;20503;-76
2024/01/10 03:05:37;;;;;;;48.20;24.10;;;;;;;-6.77;66.73;100212.84;5026331;28;20368;-76
2024/01/10 03:08:04;;;;;;;46.78;23.50;;;;;;;-6.77;66.48;100202.47;5028339;28;20033;-76
2024/01/10 03:10:29;;;;;;;52.85;22.15;;;;;;;-6.73;66.47;100201.34;5027760;28;20486;-76
2024/01/10 03:12:54;;;;;;;61.20;25.80;;;;;;;-6.77;66.44;100196.47;5026287;28;20030;-75
2024/01/10 03:15:20;;;;;;;63.50;24.70;;;;;;;-6.79;67.13;100199.16;5027035;28;20064;-76
2024/01/10 03:17:45;;;;;;;56.10;23.48;;;;;;;-6.77;66.59;100206.84;5024625;28;20124;-77
2024/01/10 03:20:11;;;;;;;60.63;25.33;;;;;;;-6.78;66.63;100202.59;5020560;28;20110;-76
2024/01/10 03:22:37;;;;;;;49.45;23.52;;;;;;;-6.87;66.64;100198.88;5021966;28;20028;-76
2024/01/10 03:25:02;;;;;;;55.17;24.77;;;;;;;-6.88;66.99;100177.28;5025374;28;20018;-76
2024/01/10 03:27:28;;;;;;;58.13;23.88;;;;;;;-6.84;66.86;100196.06;5021822;28;20087;-76
2024/01/10 03:29:53;;;;;;;46.13;23.02;;;;;;;-6.80;66.93;100192.31;5019786;28;20121;-77
2024/01/10 03:32:18;;;;;;;58.45;26.33;;;;;;;-6.78;66.84;100192.22;5020724;28;20160;-76
2024/01/10 03:34:44;;;;;;;51.67;22.95;;;;;;;-6.85;66.76;100189.22;5020096;28;20542;-76
2024/01/10 03:37:09;;;;;;;50.25;24.17;;;;;;;-6.87;66.55;100189.31;5021329;28;20576;-76
2024/01/10 03:39:34;;;;;;;56.33;25.30;;;;;;;-6.91;67.07;100189.63;5013129;28;20152;-76
2024/01/10 03:42:00;;;;;;;52.67;21.60;;;;;;;-6.84;66.69;100195.22;5020643;28;20037;-76
2024/01/10 03:44:26;;;;;;;58.42;23.17;;;;;;;-6.85;66.80;100197.00;5019145;28;20026;-75
2024/01/10 03:46:52;;;;;;;56.15;23.35;;;;;;;-6.80;66.46;100196.69;5023194;28;20100;-75
2024/01/10 03:49:17;;;;;;;55.20;26.45;;;;;;;-6.90;66.60;100199.91;5027422;28;21748;-75
2024/01/10 03:51:43;;;;;;;57.17;24.58;;;;;;;-6.97;67.16;100200.44;5026327;28;20065;-75
2024/01/10 03:54:08;;;;;;;59.13;26.00;;;;;;;-6.96;67.02;100207.28;5028132;28;20043;-76
2024/01/10 03:56:34;;;;;;;66.78;27.15;;;;;;;-7.22;67.49;100203.03;5027912;28;20049;-75
2024/01/10 03:59:01;;;;;;;61.50;26.60;;;;;;;-7.05;67.26;100193.16;5027789;28;20025;-75
2024/01/10 04:01:26;;;;;;;56.25;25.83;;;;;;;-6.96;67.17;100189.94;5025890;28;20028;-75
2024/01/10 04:03:52;;;;;;;63.38;26.23;;;;;;;-6.94;67.12;100197.63;5024267;28;20034;-75
2024/01/10 04:06:17;;;;;;;65.95;27.20;;;;;;;-7.17;67.63;100188.81;5027519;28;20041;-75
2024/01/10 04:08:42;;;;;;;55.67;25.40;;;;;;;-6.90;67.37;100188.69;5027636;28;20132;-76
2024/01/10 04:11:08;;;;;;;62.45;28.55;;;;;;;-6.95;67.10;100183.00;5027272;28;20029;-76
2024/01/10 04:13:34;;;;;;;70.95;28.25;;;;;;;-6.89;66.98;100187.75;5027903;28;20116;-76
2024/01/10 04:15:59;;;;;;;61.92;27.02;;;;;;;-6.92;67.43;100181.00;5027246;28;20130;-77
2024/01/10 04:18:25;;;;;;;62.17;25.23;;;;;;;-6.88;67.43;100184.25;5026463;28;20462;-76
2024/01/10 04:20:51;;;;;;;57.63;25.92;;;;;;;-6.96;66.80;100189.94;5028474;28;20045;-76
2024/01/10 04:23:17;;;;;;;62.92;25.77;;;;;;;-6.99;67.59;100187.56;5029364;28;20034;-76
2024/01/10 04:25:42;;;;;;;65.00;27.30;;;;;;;-7.04;66.91;100186.22;5022587;28;20038;-77
2024/01/10 04:28:08;;;;;;;59.88;26.92;;;;;;;-7.09;67.11;100186.53;5024021;28;20041;-76
2024/01/10 04:30:33;;;;;;;56.50;27.15;;;;;;;-7.02;67.40;100179.16;5025276;28;20029;-76
2024/01/10 04:32:58;;;;;;;61.50;25.77;;;;;;;-6.92;67.21;100185.38;5027883;28;20099;-75
2024/01/10 04:35:24;;;;;;;61.95;27.52;;;;;;;-6.91;67.27;100182.69;5028259;28;20418;-75
2024/01/10 04:37:49;;;;;;;49.28;26.45;;;;;;;-6.95;67.35;100193.38;5027461;28;20037;-76
2024/01/10 04:40:14;;;;;;;66.72;28.17;;;;;;;-7.05;66.80;100181.97;5026482;28;20048;-76
2024/01/10 04:42:40;;;;;;;57.85;25.35;;;;;;;-7.02;67.39;100180.00;5022624;28;20072;-76
2024/01/10 04:45:07;;;;;;;62.67;25.98;;;;;;;-7.02;67.29;100185.19;5027481;28;20092;-76
2024/01/10 04:47:32;;;;;;;73.55;28.92;;;;;;;-6.96;67.33;100173.53;5023691;28;20029;-75
2024/01/10 04:49:58;;;;;;;59.35;27.10;;;;;;;-6.99;67.26;100166.00;5025798;28;20121;-77
2024/01/10 04:52:23;;;;;;;67.57;24.90;;;;;;;-6.96;67.60;100171.78;5024022;28;20734;-76
2024/01/10 04:54:49;;;;;;;60.65;27.92;;;;;;;-6.97;67.30;100177.91;5023507;28;20030;-76
2024/01/10 04:57:15;;;;;;;67.32;26.30;;;;;;;-6.90;67.16;100188.69;5028855;28;20521;-76
2024/01/10 04:59:41;;;;;;;65.72;27.00;;;;;;;-6.94;67.07;100190.66;5024230;28;20033;-76
2024/01/10 05:02:06;;;;;;;61.63;26.08;;;;;;;-7.21;67.25;100179.59;5022740;28;20429;-77
2024/01/10 05:04:32;;;;;;;72.78;29.60;;;;;;;-7.62;68.78;100184.09;5025510;28;20037;-76
2024/01/10 05:06:57;;;;;;;57.30;25.77;;;;;;;-7.12;68.43;100185.94;5026741;28;20026;-75
2024/01/10 05:09:22;;;;;;;66.25;28.13;;;;;;;-7.65;68.12;100179.13;5031790;28;20030;-76
2024/01/10 05:11:50;;;;;;;65.47;26.85;;;;;;;-7.23;68.72;100178.03;5026288;28;20087;-75
2024/01/10 05:14:16;;;;;;;68.80;29.23;;;;;;;-7.07;67.92;100176.03;5027068;28;20034;-76
2024/01/10 05:16:41;;;;;;;59.45;26.90;;;;;;;-7.03;67.44;100177.50;5026204;28;20030;-75
2024/01/10 05:19:06;;;;;;;54.50;25.45;;;;;;;-7.06;67.88;100182.91;5023733;28;20033;-75
2024/01/10 05:21:32;;;;;;;57.85;27.08;;;;;;;-7.05;67.89;100180.19;5025984;28;20032;-76
2024/01/10 05:23:57;;;;;;;66.22;25.90;;;;;;;-7.02;67.26;100179.16;5021833;28;20063;-75
2024/01/10 05:26:23;;;;;;;67.53;28.45;;;;;;;-7.11;67.57;100170.25;5020172;28;20032;-75
2024/01/10 05:28:48;;;;;;;69.72;27.17;;;;;;;-7.04;67.65;100174.09;5024269;28;20041;-75
2024/01/10 05:31:14;;;;;;;62.13;28.30;;;;;;;-7.08;67.48;100179.59;5017820;28;20042;-75
2024/01/10 05:33:39;;;;;;;61.15;26.08;;;;;;;-7.17;67.74;100170.69;5021594;28;20049;-75
2024/01/10 05:36:05;;;;;;;62.92;26.70;;;;;;;-7.12;67.94;100188.53;5029575;28;20033;-75
2024/01/10 05:38:30;;;;;;;61.00;24.98;;;;;;;-7.09;67.72;100190.88;5027987;28;20032;-76
2024/01/10 05:40:55;;;;;;;60.75;26.80;;;;;;;-7.15;67.51;100183.53;5025068;28;20044;-75
2024/01/10 05:43:21;;;;;;;52.45;24.20;;;;;;;-7.17;67.75;100175.84;5024327;28;20112;-75
2024/01/10 05:45:47;;;;;;;56.30;25.52;;;;;;;-7.16;67.45;100181.84;5025720;28;20030;-75
2024/01/10 05:48:12;;;;;;;54.78;24.98;;;;;;;-7.11;67.32;100185.81;5027535;28;20043;-75
2024/01/10 05:50:39;;;;;;;61.95;23.85;;;;;;;-7.09;67.66;100190.88;5020562;28;20053;-75
2024/01/10 05:53:04;;;;;;;50.05;22.92;;;;;;;-7.14;67.42;100190.38;5025418;28;20030;-75
2024/01/10 05:55:29;;;;;;;61.92;25.90;;;;;;;-8.17;69.75;100196.41;5025534;28;20091;-75
2024/01/10 05:57:55;;;;;;;58.25;23.55;;;;;;;-7.32;68.81;100186.44;5024810;28;20061;-76
2024/01/10 06:00:20;;;;;;;56.20;24.75;;;;;;;-7.21;68.50;100181.34;5018948;28;20029;-76
2024/01/10 06:02:46;;;;;;;51.10;23.90;;;;;;;-7.23;68.16;100176.25;5022789;28;20355;-76
2024/01/10 06:05:12;;;;;;;52.15;25.35;;;;;;;-7.16;68.11;100190.47;5019282;28;20056;-75
2024/01/10 06:07:41;;;;;;;74.93;27.88;;;;;;;-7.15;67.73;100186.97;5023460;28;20045;-75
2024/01/10 06:10:07;;;;;;;59.10;26.90;;;;;;;-7.15;67.93;100183.53;5025147;28;20494;-75
2024/01/10 06:12:33;;;;;;;58.45;26.60;;;;;;;-7.16;68.33;100182.69;5023964;28;20033;-76
2024/01/10 06:14:58;;;;;;;54.70;24.17;;;;;;;-7.28;67.79;100180.09;5026809;28;20505;-76
2024/01/10 06:17:24;;;;;;;58.90;24.83;;;;;;;-7.26;68.16;100186.00;5026310;28;20085;-75
2024/01/10 06:19:50;;;;;;;51.13;24.52;;;;;;;-7.25;67.83;100175.53;5024518;28;20022;-75
2024/01/10 06:22:16;;;;;;;51.83;23.10;;;;;;;-7.22;67.99;100187.47;5026283;28;20544;-75
2024/01/10 06:24:42;;;;;;;56.08;24.40;;;;;;;-7.44;68.50;100184.66;5021045;28;20112;-75
2024/01/10 06:27:08;;;;;;;61.38;25.45;;;;;;;-7.26;68.25;100180.81;5022019;28;20533;-76
2024/01/10 06:29:33;;;;;;;55.13;23.92;;;;;;;-7.41;68.24;100182.69;5028582;28;20033;-76
2024/01/10 06:32:00;;;;;;;55.58;25.33;;;;;;;-7.58;69.17;100182.16;5027743;28;20490;-76
2024/01/10 06:34:26;;;;;;;61.45;26.70;;;;;;;-7.35;68.56;100186.63;5028058;28;20044;-75
2024/01/10 06:36:52;;;;;;;67.70;30.20;;;;;;;-8.39;69.50;100178.00;5030968;28;20029;-78
2024/01/10 06:39:19;;;;;;;67.03;28.40;;;;;;;-7.44;69.73;100169.94;5029338;28;20038;-77
2024/01/10 06:41:46;;;;;;;58.50;26.65;;;;;;;-7.27;68.63;100174.00;5035431;28;20032;-77
2024/01/10 06:44:11;;;;;;;70.45;30.65;;;;;;;-7.24;68.68;100184.16;5037566;28;20037;-78
2024/01/10 06:46:36;;;;;;;59.03;27.60;;;;;;;-7.19;68.78;100175.13;5030720;28;20382;-78
2024/01/10 06:49:02;;;;;;;61.70;27.50;;;;;;;-7.24;68.38;100179.78;5021471;28;20041;-75
2024/01/10 06:51:27;;;;;;;59.35;26.88;;;;;;;-7.23;68.41;100175.44;5031150;28;20029;-76
2024/01/10 06:53:52;;;;;;;60.38;26.45;;;;;;;-7.25;68.25;100178.13;5030493;28;20033;-75
2024/01/10 06:56:18;;;;;;;64.88;27.90;;;;;;;-7.41;68.77;100174.91;5029919;28;20037;-76
2024/01/10 06:58:44;;;;;;;70.30;28.20;;;;;;;-7.28;68.42;100174.91;5031032;28;20038;-76
2024/01/10 07:01:13;;;;;;;59.83;26.08;;;;;;;-7.22;68.63;100182.28;5027781;28;20486;-76
2024/01/10 07:03:42;;;;;;;58.28;26.90;;;;;;;-7.29;68.66;100175.84;5026408;28;20036;-75
2024/01/10 07:06:07;;;;;;;59.60;25.33;;;;;;;-7.27;68.37;100186.97;5011481;28;20044;-74
2024/01/10 07:08:32;;;;;;;61.83;24.98;;;;;;;-7.26;68.54;100175.63;5028649;28;20029;-74
2024/01/10 07:10:58;;;;;;;62.22;25.40;;;;;;;-7.22;68.30;100183.13;5028422;28;20039;-74
2024/01/10 07:13:24;;;;;;;55.08;28.23;;;;;;;-7.20;68.30;100189.03;5031242;28;20498;-74
2024/01/10 07:15:52;;;;;;;64.10;26.90;;;;;;;-7.25;68.66;100190.28;5025206;28;20065;-73
2024/01/10 07:18:18;;;;;;;64.20;27.48;;;;;;;-7.29;68.03;100186.22;5025652;28;20017;-74
2024/01/10 07:20:43;;;;;;;58.60;24.63;;;;;;;-7.25;68.39;100192.88;5026105;28;20398;-74
2024/01/10 07:23:08;;;;;;;68.47;29.48;;;;;;;-7.25;68.61;100198.06;5025939;28;20025;-76
2024/01/10 07:25:33;;;;;;;58.75;28.30;;;;;;;-7.24;68.53;100197.09;5028594;28;20084;-76
2024/01/10 07:27:59;;;;;;;68.93;29.58;;;;;;;-7.24;68.29;100197.94;5022790;28;20074;-76
2024/01/10 07:30:26;;;;;;;62.38;29.85;;;;;;;-7.26;68.40;100204.16;5024833;28;20116;-74
2024/01/10 07:32:51;;;;;;;64.85;27.52;;;;;;;-7.27;68.28;100199.94;5027216;28;20537;-74
2024/01/10 07:35:17;;;;;;;68.50;29.95;;;;;;;-7.24;68.45;100202.28;5029723;28;20116;-74
2024/01/10 07:37:43;;;;;;;67.90;29.65;;;;;;;-7.28;68.31;100195.66;5029995;28;20128;-74
2024/01/10 07:40:10;;;;;;;70.28;29.08;;;;;;;-7.23;68.49;100206.56;5017338;28;20387;-76
2024/01/10 07:42:37;;;;;;;63.03;28.42;;;;;;;-7.26;68.00;100202.41;5027689;28;20021;-76
2024/01/10 07:45:07;;;;;;;65.57;30.67;;;;;;;-7.20;68.44;100214.13;5030448;28;20029;-76
2024/01/10 07:47:37;;;;;;;78.78;30.60;;;;;;;-7.22;68.35;100203.03;5031609;28;20033;-76
2024/01/10 07:50:07;;;;;;;73.03;32.25;;;;;;;-7.24;68.28;100204.88;5029195;28;20037;-76
2024/01/10 07:52:32;;;;;;;73.18;31.00;;;;;;;-7.23;68.27;100199.59;5030176;28;20029;-76
2024/01/10 07:54:58;;;;;;;63.83;29.10;;;;;;;-7.21;68.32;100204.69;5030963;28;20091;-76
2024/01/10 07:57:23;;;;;;;68.40;29.95;;;;;;;-7.19;68.47;100205.41;5030341;28;20124;-76
2024/01/10 07:59:49;;;;;;;63.42;27.75;;;;;;;-7.13;68.59;100205.84;5028298;28;20048;-76
2024/01/10 08:02:14;;;;;;;71.43;28.25;;;;;;;-7.13;68.82;100211.03;5028510;28;20429;-76
2024/01/10 08:04:39;;;;;;;75.90;31.17;;;;;;;-7.12;68.32;100212.66;5030227;28;20053;-76
2024/01/10 08:07:05;;;;;;;66.78;30.17;;;;;;;-7.08;68.63;100203.78;5024436;28;20397;-76
2024/01/10 08:09:30;;;;;;;79.05;30.85;;;;;;;-7.08;68.37;100211.56;5042532;28;20053;-76
2024/01/10 08:11:55;;;;;;;69.70;30.45;;;;;;;-7.10;68.95;100210.00;5028762;28;20041;-76
2024/01/10 08:14:21;;;;;;;84.20;34.72;;;;;;;-7.39;68.95;100205.91;5022831;28;20041;-76
2024/01/10 08:16:46;;;;;;;76.43;31.48;;;;;;;-7.22;69.76;100214.22;5021043;28;20069;-75
2024/01/10 08:19:11;;;;;;;80.10;32.20;;;;;;;-7.08;69.35;100216.75;5027389;28;20120;-76
2024/01/10 08:21:37;;;;;;;77.55;33.15;;;;;;;-6.92;68.21;100219.94;5020245;28;20156;-75
2024/01/10 08:24:03;;;;;;;78.45;34.10;;;;;;;-6.91;68.56;100211.22;5022548;28;20208;-76
2024/01/10 08:26:28;;;;;;;68.70;30.95;;;;;;;-7.14;68.59;100200.75;5025133;28;20037;-75
2024/01/10 08:28:54;;;;;;;75.18;31.25;;;;;;;-7.09;69.67;100202.09;5028422;28;20072;-75
2024/01/10 08:31:19;;;;;;;71.78;32.78;;;;;;;-6.86;68.93;100203.13;5027946;28;20036;-75
2024/01/10 08:33:46;;;;;;;74.72;31.48;;;;;;;-6.81;68.54;100197.63;5026511;28;20569;-74
2024/01/10 08:36:12;;;;;;;75.28;33.83;;;;;;;-6.80;68.62;100204.47;5022424;28;20075;-75
2024/01/10 08:38:38;;;;;;;88.72;33.03;;;;;;;-6.72;68.55;100207.34;5022948;28;20043;-75
2024/01/10 08:41:04;;;;;;;81.75;34.30;;;;;;;-6.68;68.61;100208.81;5025277;28;20444;-75
2024/01/10 08:43:30;;;;;;;74.47;32.40;;;;;;;-6.68;68.25;100207.03;5023412;28;20022;-75
2024/01/10 08:45:57;;;;;;;85.53;32.60;;;;;;;-6.63;68.17;100212.75;5029305;28;20454;-75
2024/01/10 08:48:23;;;;;;;70.22;31.45;;;;;;;-6.58;68.36;100207.25;5032616;28;20028;-75
2024/01/10 08:50:48;;;;;;;72.35;34.83;;;;;;;-6.72;68.81;100202.16;5028358;28;20034;-75
2024/01/10 08:53:14;;;;;;;77.97;31.70;;;;;;;-6.81;69.12;100210.59;5032799;28;20088;-75
2024/01/10 08:55:39;;;;;;;73.63;32.95;;;;;;;-6.49;68.66;100207.44;5028346;28;20120;-75
2024/01/10 08:58:04;;;;;;;78.03;33.65;;;;;;;-6.50;68.22;100197.97;5029464;28;20037;-75
2024/01/10 09:00:30;;;;;;;79.65;34.58;;;;;;;-6.39;68.07;100194.63;5032282;28;20083;-77
2024/01/10 09:02:58;;;;;;;76.25;32.17;;;;;;;-6.29;67.93;100196.44;5030283;28;20052;-75
2024/01/10 09:05:24;;;;;;;76.20;35.45;;;;;;;-6.31;67.79;100195.72;5024535;28;20140;-74
2024/01/10 09:07:49;;;;;;;82.40;34.38;;;;;;;-6.31;67.74;100198.31;5031979;28;20082;-75
2024/01/10 09:10:15;;;;;;;71.90;33.08;;;;;;;-7.08;69.55;100203.78;5028196;28;20494;-75
2024/01/10 09:12:43;;;;;;;81.88;34.55;;;;;;;-7.10;71.24;100202.22;5022523;28;20034;-75
2024/01/10 09:15:12;;;;;;;79.20;34.40;;;;;;;-7.01;70.48;100201.59;5026052;28;20040;-74
2024/01/10 09:17:38;;;;;;;88.05;36.50;;;;;;;-7.91;72.54;100198.16;5031237;28;20387;-74
2024/01/10 09:20:04;;;;;;;87.60;36.08;;;;;;;-7.81;73.00;100200.03;5020218;28;20022;-74
2024/01/10 09:22:30;;;;;;;83.25;36.20;;;;;;;-7.99;73.39;100198.63;5030183;28;20032;-74
2024/01/10 09:24:55;;;;;;;94.07;37.65;;;;;;;-8.23;74.47;100196.78;5026280;28;20045;-74
2024/01/10 09:27:22;;;;;;;86.78;35.10;;;;;;;-7.71;75.40;100192.50;5013601;28;20026;-75
2024/01/10 09:29:48;;;;;;;99.15;36.67;;;;;;;-8.17;75.54;100197.22;5031249;28;20026;-74
2024/01/10 09:32:13;;;;;;;80.53;35.80;;;;;;;-8.54;76.30;100195.31;5029832;28;20026;-74
2024/01/10 09:34:38;;;;;;;92.03;38.30;;;;;;;-8.50;77.09;100199.38;5023863;28;20033;-74
2024/01/10 09:37:05;;;;;;;72.60;34.00;;;;;;;-8.56;77.66;100198.00;5025172;28;20406;-74
2024/01/10 09:39:30;;;;;;;79.93;34.60;;;;;;;-7.64;77.01;100197.16;5026961;28;20034;-74
2024/01/10 09:41:58;;;;;;;79.28;33.67;;;;;;;-7.89;76.11;100202.31;5024547;28;20025;-74
2024/01/10 09:44:24;;;;;;;92.13;36.03;;;;;;;-8.15;76.15;100195.38;5027763;28;20398;-74
2024/01/10 09:46:52;;;;;;;88.32;35.15;;;;;;;-7.72;76.24;100199.44;5026696;28;20025;-74
2024/01/10 09:49:18;;;;;;;80.20;35.03;;;;;;;-6.93;74.50;100174.19;5026575;28;20025;-74
2024/01/10 09:51:47;;;;;;;77.28;33.63;;;;;;;-6.37;71.81;100185.78;5030219;28;20168;-75
2024/01/10 09:54:15;;;;;;;76.65;33.65;;;;;;;-7.46;73.16;100189.09;5025518;28;20030;-75
2024/01/10 09:56:41;;;;;;;62.97;32.95;;;;;;;-6.24;71.73;100196.13;5027462;28;21780;-75
2024/01/10 09:59:10;;;;;;;71.50;33.20;;;;;;;-5.87;69.96;100186.50;5030212;28;20088;-75
2024/01/10 10:01:38;;;;;;;73.03;34.33;;;;;;;-5.94;69.03;100193.09;5029103;28;20470;-75
2024/01/10 10:04:05;;;;;;;74.57;33.80;;;;;;;-6.57;70.54;100188.09;5030275;28;20029;-75
2024/01/10 10:06:31;;;;;;;86.40;37.35;;;;;;;-7.46;73.45;100194.28;5030565;28;20467;-75
2024/01/10 10:08:56;;;;;;;84.60;36.97;;;;;;;-7.26;73.26;100191.19;5031401;28;20057;-75
2024/01/10 10:11:22;;;;;;;77.90;35.65;;;;;;;-7.02;74.90;100186.94;5026956;28;20033;-75
2024/01/10 10:13:47;;;;;;;87.70;35.80;;;;;;;-6.86;73.32;100190.16;5024951;28;20026;-75
2024/01/10 10:16:12;;;;;;;76.35;35.17;;;;;;;-6.70;73.36;100169.97;5031076;28;20048;-75
2024/01/10 10:18:39;;;;;;;86.38;34.95;;;;;;;-6.06;71.30;100171.44;5026709;28;20413;-76
2024/01/10 10:21:08;;;;;;;79.80;35.53;;;;;;;-6.26;70.89;100175.47;5031822;28;20141;-75
2024/01/10 10:23:34;;;;;;;82.82;36.28;;;;;;;-5.65;69.58;100165.75;5030171;28;20108;-75
2024/01/10 10:26:20;;;;;;;82.45;36.08;;;;;;;-5.62;69.20;100149.94;5021472;28;20842;-75
2024/01/10 10:28:48;;;;;;;77.05;32.40;;;;;;;-6.02;69.58;100170.25;5027288;28;20486;-74
2024/01/10 10:31:16;;;;;;;74.32;32.90;;;;;;;-5.87;70.99;100170.91;5028353;28;20042;-74
2024/01/10 10:33:43;;;;;;;76.22;33.83;;;;;;;-5.77;69.86;100164.06;5026945;28;20041;-74
2024/01/10 10:36:08;;;;;;;78.18;31.35;;;;;;;-5.73;70.51;100170.69;5029213;28;20056;-74
2024/01/10 10:38:34;;;;;;;80.90;32.22;;;;;;;-5.78;70.25;100171.03;5028982;28;20029;-73
2024/01/10 10:41:00;;;;;;;82.60;34.88;;;;;;;-5.66;69.65;100166.72;5027923;28;20374;-74
2024/01/10 10:43:26;;;;;;;80.13;32.53;;;;;;;-5.55;69.37;100167.56;5026823;28;20190;-74
2024/01/10 10:45:51;;;;;;;66.60;32.13;;;;;;;-5.49;68.51;100155.88;5027924;28;20029;-74
2024/01/10 10:48:20;;;;;;;79.30;33.80;;;;;;;-5.49;68.88;100155.88;5024996;28;20057;-73
2024/01/10 10:51:17;;;;;;;72.55;34.55;;;;;;;-6.38;69.86;100162.53;5027140;28;20029;-74
2024/01/10 10:53:45;;;;;;;80.85;34.67;;;;;;;-6.78;73.12;100158.47;5022173;28;20058;-75
2024/01/10 10:56:11;;;;;;;86.82;35.28;;;;;;;-7.24;74.55;100159.03;5027106;28;20573;-76
2024/01/10 10:58:41;;;;;;;78.10;34.28;;;;;;;-6.45;73.78;100154.34;5027648;28;20029;-75
2024/01/10 11:01:09;;;;;;;75.70;35.33;;;;;;;-6.15;71.86;100156.50;5025729;28;20150;-76
2024/01/10 11:03:37;;;;;;;78.95;33.33;;;;;;;-6.18;72.96;100156.75;5028743;28;20421;-76